sensor_id;sensor_type;location;lat;lon;timestamp;temperature;humidity
71514;DHT22;59335;46.652;21.272;2023-06-01T00:00:13;25.10;50.53
71514;DHT22;59335;46.652;21.272;2023-06-01T00:03:19;25.10;50.42
71514;DHT22;59335;46.652;21.272;2023-06-01T00:06:22;25.11;50.50
71514;DHT22;59335;46.652;21.272;2023-06-01T00:09:24;25.07;50.49
71514;DHT22;59335;46.652;21.272;2023-06-01T00:12:27;25.11;50.46
71514;DHT22;59335;46.652;21.272;2023-06-01T00:15:30;25.08;50.50
71514;DHT22;59335;46.652;21.272;2023-06-01T00:18:32;25.07;50.51
71514;DHT22;59335;46.652;21.272;2023-06-01T00:21:35;25.10;50.46
71514;DHT22;59335;46.652;21.272;2023-06-01T00:24:38;25.10;50.51
71514;DHT22;59335;46.652;21.272;2023-06-01T00:27:41;25.08;50.49
71514;DHT22;59335;46.652;21.272;2023-06-01T00:30:43;25.10;50.52
71514;DHT22;59335;46.652;21.272;2023-06-01T00:33:46;25.07;50.54
71514;DHT22;59335;46.652;21.272;2023-06-01T00:36:49;25.07;50.54
71514;DHT22;59335;46.652;21.272;2023-06-01T00:39:51;25.06;50.55
71514;DHT22;59335;46.652;21.272;2023-06-01T00:42:54;25.07;50.51
71514;DHT22;59335;46.652;21.272;2023-06-01T00:45:57;25.06;50.52
71514;DHT22;59335;46.652;21.272;2023-06-01T00:48:59;25.08;50.46
71514;DHT22;59335;46.652;21.272;2023-06-01T00:52:02;25.11;50.49
71514;DHT22;59335;46.652;21.272;2023-06-01T00:55:06;25.06;50.52
71514;DHT22;59335;46.652;21.272;2023-06-01T00:58:12;25.04;50.55
71514;DHT22;59335;46.652;21.272;2023-06-01T01:01:15;25.03;50.52
71514;DHT22;59335;46.652;21.272;2023-06-01T01:04:26;25.03;50.52
71514;DHT22;59335;46.652;21.272;2023-06-01T01:07:32;25.06;50.45
71514;DHT22;59335;46.652;21.272;2023-06-01T01:10:41;25.07;50.51
71514;DHT22;59335;46.652;21.272;2023-06-01T01:13:56;25.07;50.43
71514;DHT22;59335;46.652;21.272;2023-06-01T01:17:15;25.04;50.49
71514;DHT22;59335;46.652;21.272;2023-06-01T01:20:27;25.06;50.50
71514;DHT22;59335;46.652;21.272;2023-06-01T01:30:05;25.04;50.48
71514;DHT22;59335;46.652;21.272;2023-06-01T01:33:09;25.04;50.43
71514;DHT22;59335;46.652;21.272;2023-06-01T01:36:14;25.01;50.43
71514;DHT22;59335;46.652;21.272;2023-06-01T01:39:17;25.04;50.44
71514;DHT22;59335;46.652;21.272;2023-06-01T01:42:20;25.06;50.42
71514;DHT22;59335;46.652;21.272;2023-06-01T01:45:23;25.07;50.41
71514;DHT22;59335;46.652;21.272;2023-06-01T01:48:32;25.06;50.33
71514;DHT22;59335;46.652;21.272;2023-06-01T01:52:12;25.07;50.34
71514;DHT22;59335;46.652;21.272;2023-06-01T01:55:16;25.06;50.38
71514;DHT22;59335;46.652;21.272;2023-06-01T01:58:23;25.03;50.34
71514;DHT22;59335;46.652;21.272;2023-06-01T02:01:27;25.03;50.39
71514;DHT22;59335;46.652;21.272;2023-06-01T02:04:31;25.04;50.32
71514;DHT22;59335;46.652;21.272;2023-06-01T02:07:34;25.06;50.34
71514;DHT22;59335;46.652;21.272;2023-06-01T02:10:39;25.01;50.41
71514;DHT22;59335;46.652;21.272;2023-06-01T02:13:43;25.03;50.45
71514;DHT22;59335;46.652;21.272;2023-06-01T02:16:45;25.01;50.40
71514;DHT22;59335;46.652;21.272;2023-06-01T02:19:48;25.03;50.34
71514;DHT22;59335;46.652;21.272;2023-06-01T02:22:51;25.06;50.35
71514;DHT22;59335;46.652;21.272;2023-06-01T02:25:54;25.03;50.36
71514;DHT22;59335;46.652;21.272;2023-06-01T02:28:57;25.01;50.36
71514;DHT22;59335;46.652;21.272;2023-06-01T02:31:59;25.01;50.41
71514;DHT22;59335;46.652;21.272;2023-06-01T02:35:03;25.01;50.32
71514;DHT22;59335;46.652;21.272;2023-06-01T02:38:05;25.04;50.36
71514;DHT22;59335;46.652;21.272;2023-06-01T02:41:08;24.98;50.30
71514;DHT22;59335;46.652;21.272;2023-06-01T02:44:11;25.00;50.35
71514;DHT22;59335;46.652;21.272;2023-06-01T02:47:14;24.98;50.34
71514;DHT22;59335;46.652;21.272;2023-06-01T02:50:16;25.04;50.29
71514;DHT22;59335;46.652;21.272;2023-06-01T02:53:22;24.98;50.32
71514;DHT22;59335;46.652;21.272;2023-06-01T02:56:25;24.98;50.38
71514;DHT22;59335;46.652;21.272;2023-06-01T02:59:40;25.00;50.32
71514;DHT22;59335;46.652;21.272;2023-06-01T03:02:44;25.01;50.24
71514;DHT22;59335;46.652;21.272;2023-06-01T03:05:47;25.01;50.30
71514;DHT22;59335;46.652;21.272;2023-06-01T03:09:25;25.00;50.28
71514;DHT22;59335;46.652;21.272;2023-06-01T03:12:31;24.98;50.33
71514;DHT22;59335;46.652;21.272;2023-06-01T03:15:34;25.01;50.22
71514;DHT22;59335;46.652;21.272;2023-06-01T03:18:37;24.98;50.27
71514;DHT22;59335;46.652;21.272;2023-06-01T03:21:40;25.00;50.22
71514;DHT22;59335;46.652;21.272;2023-06-01T03:24:44;25.00;50.26
71514;DHT22;59335;46.652;21.272;2023-06-01T03:27:50;25.03;50.15
71514;DHT22;59335;46.652;21.272;2023-06-01T03:30:53;25.00;50.22
71514;DHT22;59335;46.652;21.272;2023-06-01T03:33:56;25.01;50.21
71514;DHT22;59335;46.652;21.272;2023-06-01T03:36:58;24.98;50.16
71514;DHT22;59335;46.652;21.272;2023-06-01T03:40:02;25.03;50.19
71514;DHT22;59335;46.652;21.272;2023-06-01T03:43:12;25.01;50.17
71514;DHT22;59335;46.652;21.272;2023-06-01T03:46:15;25.04;50.19
71514;DHT22;59335;46.652;21.272;2023-06-01T03:49:18;25.03;50.26
71514;DHT22;59335;46.652;21.272;2023-06-01T03:52:21;25.04;50.20
71514;DHT22;59335;46.652;21.272;2023-06-01T03:55:24;25.03;50.19
71514;DHT22;59335;46.652;21.272;2023-06-01T03:58:35;25.06;50.19
71514;DHT22;59335;46.652;21.272;2023-06-01T04:01:39;25.01;50.29
71514;DHT22;59335;46.652;21.272;2023-06-01T04:04:42;25.07;50.25
71514;DHT22;59335;46.652;21.272;2023-06-01T04:07:52;25.03;50.23
71514;DHT22;59335;46.652;21.272;2023-06-01T04:10:55;25.01;50.28
71514;DHT22;59335;46.652;21.272;2023-06-01T04:13:58;25.01;50.29
71514;DHT22;59335;46.652;21.272;2023-06-01T04:17:02;25.04;50.25
71514;DHT22;59335;46.652;21.272;2023-06-01T04:20:06;25.07;50.24
71514;DHT22;59335;46.652;21.272;2023-06-01T04:23:12;25.04;50.22
71514;DHT22;59335;46.652;21.272;2023-06-01T04:26:15;25.06;50.23
71514;DHT22;59335;46.652;21.272;2023-06-01T04:29:19;25.04;50.22
71514;DHT22;59335;46.652;21.272;2023-06-01T04:32:26;25.06;50.29
71514;DHT22;59335;46.652;21.272;2023-06-01T04:35:30;25.08;50.23
71514;DHT22;59335;46.652;21.272;2023-06-01T04:38:33;25.13;50.12
71514;DHT22;59335;46.652;21.272;2023-06-01T04:41:37;25.15;49.98
71514;DHT22;59335;46.652;21.272;2023-06-01T04:44:40;25.25;49.86
71514;DHT22;59335;46.652;21.272;2023-06-01T04:47:44;25.27;49.85
71514;DHT22;59335;46.652;21.272;2023-06-01T04:51:01;25.31;49.82
71514;DHT22;59335;46.652;21.272;2023-06-01T04:54:06;25.31;49.74
71514;DHT22;59335;46.652;21.272;2023-06-01T04:57:09;25.31;49.79
71514;DHT22;59335;46.652;21.272;2023-06-01T05:00:14;25.31;49.35
71514;DHT22;59335;46.652;21.272;2023-06-01T05:03:20;25.24;48.60
71514;DHT22;59335;46.652;21.272;2023-06-01T05:06:24;24.95;49.02
71514;DHT22;59335;46.652;21.272;2023-06-01T05:09:28;24.74;49.22
71514;DHT22;59335;46.652;21.272;2023-06-01T05:12:32;24.56;49.74
71514;DHT22;59335;46.652;21.272;2023-06-01T05:15:36;24.51;50.02
71514;DHT22;59335;46.652;21.272;2023-06-01T05:18:38;24.52;50.09
71514;DHT22;59335;46.652;21.272;2023-06-01T05:21:44;24.51;50.41
71514;DHT22;59335;46.652;21.272;2023-06-01T05:24:48;24.48;50.59
71514;DHT22;59335;46.652;21.272;2023-06-01T05:27:54;24.53;50.58
71514;DHT22;59335;46.652;21.272;2023-06-01T05:30:58;24.59;50.29
71514;DHT22;59335;46.652;21.272;2023-06-01T05:34:09;24.39;51.43
71514;DHT22;59335;46.652;21.272;2023-06-01T05:37:18;24.42;51.46
71514;DHT22;59335;46.652;21.272;2023-06-01T05:40:21;24.32;51.82
71514;DHT22;59335;46.652;21.272;2023-06-01T05:43:25;24.28;52.09
71514;DHT22;59335;46.652;21.272;2023-06-01T05:46:32;24.36;52.20
71514;DHT22;59335;46.652;21.272;2023-06-01T05:49:36;24.48;51.60
71514;DHT22;59335;46.652;21.272;2023-06-01T05:52:39;24.56;51.04
71514;DHT22;59335;46.652;21.272;2023-06-01T05:55:45;24.69;51.40
71514;DHT22;59335;46.652;21.272;2023-06-01T05:59:00;24.70;51.03
71514;DHT22;59335;46.652;21.272;2023-06-01T06:02:06;24.87;51.04
71514;DHT22;59335;46.652;21.272;2023-06-01T06:05:09;24.73;51.02
71514;DHT22;59335;46.652;21.272;2023-06-01T06:08:13;24.76;51.22
71514;DHT22;59335;46.652;21.272;2023-06-01T06:11:17;24.87;51.31
71514;DHT22;59335;46.652;21.272;2023-06-01T06:14:20;24.95;51.16
71514;DHT22;59335;46.652;21.272;2023-06-01T06:17:23;25.14;50.77
71514;DHT22;59335;46.652;21.272;2023-06-01T06:20:26;25.27;50.58
71514;DHT22;59335;46.652;21.272;2023-06-01T06:23:33;25.37;50.25
71514;DHT22;59335;46.652;21.272;2023-06-01T06:26:37;25.34;50.02
71514;DHT22;59335;46.652;21.272;2023-06-01T06:29:40;25.35;50.19
71514;DHT22;59335;46.652;21.272;2023-06-01T06:32:42;25.45;50.18
71514;DHT22;59335;46.652;21.272;2023-06-01T06:35:47;25.52;50.12
71514;DHT22;59335;46.652;21.272;2023-06-01T06:38:50;25.46;50.44
71514;DHT22;59335;46.652;21.272;2023-06-01T06:41:53;25.43;50.68
71514;DHT22;59335;46.652;21.272;2023-06-01T06:44:57;25.58;50.37
71514;DHT22;59335;46.652;21.272;2023-06-01T06:48:01;25.62;50.64
71514;DHT22;59335;46.652;21.272;2023-06-01T06:51:04;25.58;50.69
71514;DHT22;59335;46.652;21.272;2023-06-01T06:54:07;25.59;49.95
71514;DHT22;59335;46.652;21.272;2023-06-01T06:57:10;25.66;50.29
71514;DHT22;59335;46.652;21.272;2023-06-01T07:00:13;25.66;50.44
71514;DHT22;59335;46.652;21.272;2023-06-01T07:03:17;25.76;50.48
71514;DHT22;59335;46.652;21.272;2023-06-01T07:06:22;25.83;50.35
71514;DHT22;59335;46.652;21.272;2023-06-01T07:09:30;25.90;50.28
71514;DHT22;59335;46.652;21.272;2023-06-01T07:12:32;25.89;49.65
71514;DHT22;59335;46.652;21.272;2023-06-01T07:15:36;25.90;49.67
71514;DHT22;59335;46.652;21.272;2023-06-01T07:18:38;25.89;49.75
71514;DHT22;59335;46.652;21.272;2023-06-01T07:21:41;25.93;49.85
71514;DHT22;59335;46.652;21.272;2023-06-01T07:24:46;25.97;49.85
71514;DHT22;59335;46.652;21.272;2023-06-01T07:27:51;26.00;49.90
71514;DHT22;59335;46.652;21.272;2023-06-01T07:30:55;26.01;50.05
71514;DHT22;59335;46.652;21.272;2023-06-01T07:34:03;25.92;49.13
71514;DHT22;59335;46.652;21.272;2023-06-01T07:37:06;25.89;49.25
71514;DHT22;59335;46.652;21.272;2023-06-01T07:40:19;25.96;49.78
71514;DHT22;59335;46.652;21.272;2023-06-01T07:43:24;25.97;49.80
71514;DHT22;59335;46.652;21.272;2023-06-01T07:46:27;26.01;49.76
71514;DHT22;59335;46.652;21.272;2023-06-01T07:49:30;26.07;49.81
71514;DHT22;59335;46.652;21.272;2023-06-01T07:52:33;26.14;49.72
71514;DHT22;59335;46.652;21.272;2023-06-01T07:55:36;26.18;49.87
71514;DHT22;59335;46.652;21.272;2023-06-01T07:58:39;26.18;50.00
71514;DHT22;59335;46.652;21.272;2023-06-01T08:01:42;26.14;50.09
71514;DHT22;59335;46.652;21.272;2023-06-01T08:04:45;26.20;50.10
71514;DHT22;59335;46.652;21.272;2023-06-01T08:07:49;26.14;49.72
71514;DHT22;59335;46.652;21.272;2023-06-01T08:10:53;26.17;49.76
71514;DHT22;59335;46.652;21.272;2023-06-01T08:13:57;26.17;49.83
71514;DHT22;59335;46.652;21.272;2023-06-01T08:17:02;26.18;49.99
71514;DHT22;59335;46.652;21.272;2023-06-01T08:20:05;26.21;49.93
71514;DHT22;59335;46.652;21.272;2023-06-01T08:23:13;26.24;49.82
71514;DHT22;59335;46.652;21.272;2023-06-01T08:26:19;26.28;49.73
71514;DHT22;59335;46.652;21.272;2023-06-01T08:29:22;26.30;49.70
71514;DHT22;59335;46.652;21.272;2023-06-01T08:32:42;26.33;49.60
71514;DHT22;59335;46.652;21.272;2023-06-01T08:35:45;26.36;49.53
71514;DHT22;59335;46.652;21.272;2023-06-01T08:38:49;26.36;49.52
71514;DHT22;59335;46.652;21.272;2023-06-01T08:45:32;26.36;49.80
71514;DHT22;59335;46.652;21.272;2023-06-01T08:48:34;26.41;49.88
71514;DHT22;59335;46.652;21.272;2023-06-01T08:51:38;26.38;50.00
71514;DHT22;59335;46.652;21.272;2023-06-01T08:54:43;26.41;50.08
71514;DHT22;59335;46.652;21.272;2023-06-01T08:57:45;26.45;50.76
71514;DHT22;59335;46.652;21.272;2023-06-01T09:00:49;26.51;51.23
71514;DHT22;59335;46.652;21.272;2023-06-01T09:03:54;26.54;50.84
71514;DHT22;59335;46.652;21.272;2023-06-01T09:06:57;26.57;50.98
71514;DHT22;59335;46.652;21.272;2023-06-01T09:10:00;26.57;51.37
71514;DHT22;59335;46.652;21.272;2023-06-01T09:13:03;26.54;51.12
71514;DHT22;59335;46.652;21.272;2023-06-01T09:16:06;26.52;51.14
71514;DHT22;59335;46.652;21.272;2023-06-01T09:19:09;26.48;51.25
71514;DHT22;59335;46.652;21.272;2023-06-01T09:22:13;26.49;51.47
71514;DHT22;59335;46.652;21.272;2023-06-01T09:25:15;26.48;51.54
71514;DHT22;59335;46.652;21.272;2023-06-01T09:28:19;26.47;51.45
71514;DHT22;59335;46.652;21.272;2023-06-01T09:31:41;26.47;51.45
71514;DHT22;59335;46.652;21.272;2023-06-01T09:34:44;26.45;51.56
71514;DHT22;59335;46.652;21.272;2023-06-01T09:37:56;26.47;51.41
71514;DHT22;59335;46.652;21.272;2023-06-01T09:41:02;26.45;50.77
71514;DHT22;59335;46.652;21.272;2023-06-01T09:44:06;26.44;51.22
71514;DHT22;59335;46.652;21.272;2023-06-01T09:47:10;26.44;51.32
71514;DHT22;59335;46.652;21.272;2023-06-01T09:50:35;26.47;50.70
71514;DHT22;59335;46.652;21.272;2023-06-01T09:53:42;26.44;50.70
71514;DHT22;59335;46.652;21.272;2023-06-01T09:56:45;26.45;50.71
71514;DHT22;59335;46.652;21.272;2023-06-01T09:59:49;26.48;51.06
71514;DHT22;59335;46.652;21.272;2023-06-01T10:02:56;26.52;51.33
71514;DHT22;59335;46.652;21.272;2023-06-01T10:05:59;26.49;51.41
71514;DHT22;59335;46.652;21.272;2023-06-01T10:09:05;26.47;51.29
71514;DHT22;59335;46.652;21.272;2023-06-01T10:12:09;26.44;51.35
71514;DHT22;59335;46.652;21.272;2023-06-01T10:15:27;26.37;49.85
71514;DHT22;59335;46.652;21.272;2023-06-01T10:18:33;26.34;49.00
71514;DHT22;59335;46.652;21.272;2023-06-01T10:21:38;26.27;49.22
71514;DHT22;59335;46.652;21.272;2023-06-01T10:24:44;26.26;50.45
71514;DHT22;59335;46.652;21.272;2023-06-01T10:28:05;26.26;50.32
71514;DHT22;59335;46.652;21.272;2023-06-01T10:31:40;26.26;50.69
71514;DHT22;59335;46.652;21.272;2023-06-01T10:34:45;26.24;50.65
71514;DHT22;59335;46.652;21.272;2023-06-01T10:41:29;26.28;50.52
71514;DHT22;59335;46.652;21.272;2023-06-01T10:47:46;26.24;50.83
71514;DHT22;59335;46.652;21.272;2023-06-01T10:51:22;26.24;50.73
71514;DHT22;59335;46.652;21.272;2023-06-01T10:54:29;26.26;49.89
71514;DHT22;59335;46.652;21.272;2023-06-01T10:57:33;26.27;49.00
71514;DHT22;59335;46.652;21.272;2023-06-01T11:00:39;26.27;49.80
71514;DHT22;59335;46.652;21.272;2023-06-01T11:03:50;26.30;50.14
71514;DHT22;59335;46.652;21.272;2023-06-01T11:06:56;26.30;50.57
71514;DHT22;59335;46.652;21.272;2023-06-01T11:10:00;26.27;50.03
71514;DHT22;59335;46.652;21.272;2023-06-01T11:13:14;26.33;50.39
71514;DHT22;59335;46.652;21.272;2023-06-01T11:19:32;26.30;50.05
71514;DHT22;59335;46.652;21.272;2023-06-01T11:22:36;26.34;49.91
71514;DHT22;59335;46.652;21.272;2023-06-01T11:25:42;26.31;50.13
71514;DHT22;59335;46.652;21.272;2023-06-01T11:28:46;26.28;49.84
71514;DHT22;59335;46.652;21.272;2023-06-01T11:31:58;26.27;49.85
71514;DHT22;59335;46.652;21.272;2023-06-01T11:35:16;26.27;49.88
71514;DHT22;59335;46.652;21.272;2023-06-01T11:38:19;26.26;49.68
71514;DHT22;59335;46.652;21.272;2023-06-01T11:41:23;26.26;49.85
71514;DHT22;59335;46.652;21.272;2023-06-01T11:44:27;26.27;49.64
71514;DHT22;59335;46.652;21.272;2023-06-01T11:47:30;26.21;49.65
71514;DHT22;59335;46.652;21.272;2023-06-01T11:50:34;26.23;48.80
71514;DHT22;59335;46.652;21.272;2023-06-01T11:53:36;26.20;49.47
71514;DHT22;59335;46.652;21.272;2023-06-01T11:56:40;26.21;49.34
71514;DHT22;59335;46.652;21.272;2023-06-01T11:59:47;26.20;49.01
71514;DHT22;59335;46.652;21.272;2023-06-01T12:03:04;26.23;48.62
71514;DHT22;59335;46.652;21.272;2023-06-01T12:06:19;26.20;48.75
71514;DHT22;59335;46.652;21.272;2023-06-01T12:09:21;26.17;48.92
71514;DHT22;59335;46.652;21.272;2023-06-01T12:12:25;26.18;49.17
71514;DHT22;59335;46.652;21.272;2023-06-01T12:15:27;26.18;48.78
71514;DHT22;59335;46.652;21.272;2023-06-01T12:18:31;26.17;48.79
71514;DHT22;59335;46.652;21.272;2023-06-01T12:21:34;26.20;49.04
71514;DHT22;59335;46.652;21.272;2023-06-01T12:24:38;26.17;48.31
71514;DHT22;59335;46.652;21.272;2023-06-01T12:27:40;26.17;48.30
71514;DHT22;59335;46.652;21.272;2023-06-01T12:30:44;26.16;48.52
71514;DHT22;59335;46.652;21.272;2023-06-01T12:33:47;26.18;48.00
71514;DHT22;59335;46.652;21.272;2023-06-01T12:36:51;26.21;48.09
71514;DHT22;59335;46.652;21.272;2023-06-01T12:39:55;26.20;47.27
71514;DHT22;59335;46.652;21.272;2023-06-01T12:42:58;26.18;47.99
71514;DHT22;59335;46.652;21.272;2023-06-01T12:46:02;26.17;47.51
71514;DHT22;59335;46.652;21.272;2023-06-01T12:49:14;26.14;47.61
71514;DHT22;59335;46.652;21.272;2023-06-01T12:52:19;26.16;47.78
71514;DHT22;59335;46.652;21.272;2023-06-01T12:55:22;26.12;47.91
71514;DHT22;59335;46.652;21.272;2023-06-01T12:58:26;26.13;48.01
71514;DHT22;59335;46.652;21.272;2023-06-01T13:01:31;26.10;47.66
71514;DHT22;59335;46.652;21.272;2023-06-01T13:04:33;26.12;47.99
71514;DHT22;59335;46.652;21.272;2023-06-01T13:07:37;26.12;48.30
71514;DHT22;59335;46.652;21.272;2023-06-01T13:10:39;26.09;48.30
71514;DHT22;59335;46.652;21.272;2023-06-01T13:13:42;26.12;48.35
71514;DHT22;59335;46.652;21.272;2023-06-01T13:16:47;26.13;48.72
71514;DHT22;59335;46.652;21.272;2023-06-01T13:19:50;26.10;48.98
71514;DHT22;59335;46.652;21.272;2023-06-01T13:22:52;26.10;49.27
71514;DHT22;59335;46.652;21.272;2023-06-01T13:25:55;26.12;49.24
71514;DHT22;59335;46.652;21.272;2023-06-01T13:28:58;26.04;46.42
71514;DHT22;59335;46.652;21.272;2023-06-01T13:32:04;26.10;46.59
71514;DHT22;59335;46.652;21.272;2023-06-01T13:35:09;26.04;46.78
71514;DHT22;59335;46.652;21.272;2023-06-01T13:38:13;26.04;47.39
71514;DHT22;59335;46.652;21.272;2023-06-01T13:41:16;26.04;48.41
71514;DHT22;59335;46.652;21.272;2023-06-01T13:44:19;26.03;48.71
71514;DHT22;59335;46.652;21.272;2023-06-01T13:47:22;26.07;48.93
71514;DHT22;59335;46.652;21.272;2023-06-01T13:50:27;26.07;49.07
71514;DHT22;59335;46.652;21.272;2023-06-01T13:53:30;26.09;49.09
71514;DHT22;59335;46.652;21.272;2023-06-01T13:56:33;26.10;49.19
71514;DHT22;59335;46.652;21.272;2023-06-01T13:59:36;26.04;49.27
71514;DHT22;59335;46.652;21.272;2023-06-01T14:02:39;26.06;49.26
71514;DHT22;59335;46.652;21.272;2023-06-01T14:05:42;26.07;49.28
71514;DHT22;59335;46.652;21.272;2023-06-01T14:08:53;26.04;49.37
71514;DHT22;59335;46.652;21.272;2023-06-01T14:11:55;26.04;49.32
71514;DHT22;59335;46.652;21.272;2023-06-01T14:14:58;26.06;49.26
71514;DHT22;59335;46.652;21.272;2023-06-01T14:18:01;26.06;48.82
71514;DHT22;59335;46.652;21.272;2023-06-01T14:21:04;26.03;49.11
71514;DHT22;59335;46.652;21.272;2023-06-01T14:24:06;26.00;50.82
71514;DHT22;59335;46.652;21.272;2023-06-01T14:27:09;26.01;51.52
71514;DHT22;59335;46.652;21.272;2023-06-01T14:30:12;26.00;51.60
71514;DHT22;59335;46.652;21.272;2023-06-01T14:33:15;25.99;51.19
71514;DHT22;59335;46.652;21.272;2023-06-01T14:36:19;25.94;53.21
71514;DHT22;59335;46.652;21.272;2023-06-01T14:39:25;25.89;62.49
71514;DHT22;59335;46.652;21.272;2023-06-01T14:42:28;25.86;61.03
71514;DHT22;59335;46.652;21.272;2023-06-01T14:45:31;25.88;61.25
71514;DHT22;59335;46.652;21.272;2023-06-01T14:48:34;25.85;59.76
71514;DHT22;59335;46.652;21.272;2023-06-01T14:51:36;25.88;58.29
71514;DHT22;59335;46.652;21.272;2023-06-01T14:54:39;25.92;58.21
71514;DHT22;59335;46.652;21.272;2023-06-01T14:57:42;25.89;57.62
71514;DHT22;59335;46.652;21.272;2023-06-01T15:00:45;25.92;56.67
71514;DHT22;59335;46.652;21.272;2023-06-01T15:03:47;25.90;56.32
71514;DHT22;59335;46.652;21.272;2023-06-01T15:06:50;25.93;55.76
71514;DHT22;59335;46.652;21.272;2023-06-01T15:09:53;25.92;55.85
71514;DHT22;59335;46.652;21.272;2023-06-01T15:12:56;25.96;55.56
71514;DHT22;59335;46.652;21.272;2023-06-01T15:15:59;25.93;55.32
71514;DHT22;59335;46.652;21.272;2023-06-01T15:19:01;25.94;55.22
71514;DHT22;59335;46.652;21.272;2023-06-01T15:22:04;25.96;55.03
71514;DHT22;59335;46.652;21.272;2023-06-01T15:25:09;25.93;54.88
71514;DHT22;59335;46.652;21.272;2023-06-01T15:28:12;25.94;54.91
71514;DHT22;59335;46.652;21.272;2023-06-01T15:31:14;25.96;54.81
71514;DHT22;59335;46.652;21.272;2023-06-01T15:34:17;25.96;54.74
71514;DHT22;59335;46.652;21.272;2023-06-01T15:37:22;25.94;54.60
71514;DHT22;59335;46.652;21.272;2023-06-01T15:40:25;25.96;54.54
71514;DHT22;59335;46.652;21.272;2023-06-01T15:43:28;25.97;54.76
71514;DHT22;59335;46.652;21.272;2023-06-01T15:46:31;25.96;54.64
71514;DHT22;59335;46.652;21.272;2023-06-01T15:49:33;25.96;54.64
71514;DHT22;59335;46.652;21.272;2023-06-01T15:52:36;25.94;54.46
71514;DHT22;59335;46.652;21.272;2023-06-01T15:55:39;25.96;54.39
71514;DHT22;59335;46.652;21.272;2023-06-01T15:58:42;25.94;54.38
71514;DHT22;59335;46.652;21.272;2023-06-01T16:01:45;25.97;54.21
71514;DHT22;59335;46.652;21.272;2023-06-01T16:04:47;25.94;54.02
71514;DHT22;59335;46.652;21.272;2023-06-01T16:07:50;25.94;54.05
71514;DHT22;59335;46.652;21.272;2023-06-01T16:10:52;25.96;53.98
71514;DHT22;59335;46.652;21.272;2023-06-01T16:13:55;25.99;53.82
71514;DHT22;59335;46.652;21.272;2023-06-01T16:16:58;25.93;53.90
71514;DHT22;59335;46.652;21.272;2023-06-01T16:20:03;25.92;53.66
71514;DHT22;59335;46.652;21.272;2023-06-01T16:23:05;25.94;53.65
71514;DHT22;59335;46.652;21.272;2023-06-01T16:26:09;25.93;53.61
71514;DHT22;59335;46.652;21.272;2023-06-01T16:29:11;25.94;53.55
71514;DHT22;59335;46.652;21.272;2023-06-01T16:32:14;25.94;53.51
71514;DHT22;59335;46.652;21.272;2023-06-01T16:35:17;25.93;53.42
71514;DHT22;59335;46.652;21.272;2023-06-01T16:38:20;25.96;53.42
71514;DHT22;59335;46.652;21.272;2023-06-01T16:41:23;25.94;53.37
71514;DHT22;59335;46.652;21.272;2023-06-01T16:44:26;25.93;53.31
71514;DHT22;59335;46.652;21.272;2023-06-01T16:47:29;25.94;53.24
71514;DHT22;59335;46.652;21.272;2023-06-01T16:50:31;25.93;53.26
71514;DHT22;59335;46.652;21.272;2023-06-01T16:53:34;25.94;53.28
71514;DHT22;59335;46.652;21.272;2023-06-01T16:56:37;25.92;53.19
71514;DHT22;59335;46.652;21.272;2023-06-01T16:59:39;25.94;53.21
71514;DHT22;59335;46.652;21.272;2023-06-01T17:02:42;25.93;53.23
71514;DHT22;59335;46.652;21.272;2023-06-01T17:05:45;25.92;53.06
71514;DHT22;59335;46.652;21.272;2023-06-01T17:08:48;25.94;53.08
71514;DHT22;59335;46.652;21.272;2023-06-01T17:11:50;25.92;52.98
71514;DHT22;59335;46.652;21.272;2023-06-01T17:14:53;25.93;52.96
71514;DHT22;59335;46.652;21.272;2023-06-01T17:17:56;25.92;52.89
71514;DHT22;59335;46.652;21.272;2023-06-01T17:20:59;25.90;52.84
71514;DHT22;59335;46.652;21.272;2023-06-01T17:24:02;25.89;52.68
71514;DHT22;59335;46.652;21.272;2023-06-01T17:27:06;25.92;52.64
71514;DHT22;59335;46.652;21.272;2023-06-01T17:30:10;25.90;52.64
71514;DHT22;59335;46.652;21.272;2023-06-01T17:33:14;25.89;52.59
71514;DHT22;59335;46.652;21.272;2023-06-01T17:36:17;25.88;52.57
71514;DHT22;59335;46.652;21.272;2023-06-01T17:39:19;25.90;52.56
71514;DHT22;59335;46.652;21.272;2023-06-01T17:42:23;25.89;52.52
71514;DHT22;59335;46.652;21.272;2023-06-01T17:45:26;25.88;52.57
71514;DHT22;59335;46.652;21.272;2023-06-01T17:48:29;25.88;52.58
71514;DHT22;59335;46.652;21.272;2023-06-01T17:51:31;25.88;52.66
71514;DHT22;59335;46.652;21.272;2023-06-01T17:54:34;25.85;52.60
71514;DHT22;59335;46.652;21.272;2023-06-01T17:57:37;25.86;52.64
71514;DHT22;59335;46.652;21.272;2023-06-01T18:00:39;25.88;52.58
71514;DHT22;59335;46.652;21.272;2023-06-01T18:03:42;25.86;52.54
71514;DHT22;59335;46.652;21.272;2023-06-01T18:06:46;25.86;52.54
71514;DHT22;59335;46.652;21.272;2023-06-01T18:09:49;25.88;52.52
71514;DHT22;59335;46.652;21.272;2023-06-01T18:12:52;25.85;52.49
71514;DHT22;59335;46.652;21.272;2023-06-01T18:15:54;25.86;52.54
71514;DHT22;59335;46.652;21.272;2023-06-01T18:18:57;25.86;52.54
71514;DHT22;59335;46.652;21.272;2023-06-01T18:21:59;25.89;52.58
71514;DHT22;59335;46.652;21.272;2023-06-01T18:25:03;25.85;52.61
71514;DHT22;59335;46.652;21.272;2023-06-01T18:28:06;25.85;52.59
71514;DHT22;59335;46.652;21.272;2023-06-01T18:31:09;25.86;52.64
71514;DHT22;59335;46.652;21.272;2023-06-01T18:34:12;25.85;52.63
71514;DHT22;59335;46.652;21.272;2023-06-01T18:37:14;25.86;52.63
71514;DHT22;59335;46.652;21.272;2023-06-01T18:40:17;25.82;52.60
71514;DHT22;59335;46.652;21.272;2023-06-01T18:43:21;25.83;52.58
71514;DHT22;59335;46.652;21.272;2023-06-01T18:46:24;25.83;52.56
71514;DHT22;59335;46.652;21.272;2023-06-01T18:49:27;25.83;52.57
71514;DHT22;59335;46.652;21.272;2023-06-01T18:52:30;25.83;52.59
71514;DHT22;59335;46.652;21.272;2023-06-01T18:55:32;25.80;52.61
71514;DHT22;59335;46.652;21.272;2023-06-01T18:58:35;25.79;52.60
71514;DHT22;59335;46.652;21.272;2023-06-01T19:01:37;25.82;52.61
71514;DHT22;59335;46.652;21.272;2023-06-01T19:04:40;25.79;52.66
71514;DHT22;59335;46.652;21.272;2023-06-01T19:07:44;25.80;52.65
71514;DHT22;59335;46.652;21.272;2023-06-01T19:13:49;25.78;52.70
71514;DHT22;59335;46.652;21.272;2023-06-01T19:16:52;25.79;52.65
71514;DHT22;59335;46.652;21.272;2023-06-01T19:19:55;25.78;52.65
71514;DHT22;59335;46.652;21.272;2023-06-01T19:23:05;25.76;52.69
71514;DHT22;59335;46.652;21.272;2023-06-01T19:26:08;25.73;52.73
71514;DHT22;59335;46.652;21.272;2023-06-01T19:29:12;25.73;52.70